createdAt,value
2018-06-09T00:01:31.325Z,14.70
2018-06-09T00:04:02.411Z,14.60
2018-06-09T00:06:33.337Z,14.60
2018-06-09T00:09:05.702Z,14.60
2018-06-09T00:11:36.368Z,14.60
2018-06-09T00:14:07.093Z,14.60
2018-06-09T00:16:37.773Z,14.60
2018-06-09T00:19:08.438Z,14.60
2018-06-09T00:21:39.090Z,14.50
2018-06-09T00:24:09.813Z,14.50
2018-06-09T00:26:40.550Z,14.50
2018-06-09T00:29:11.234Z,14.50
2018-06-09T00:31:41.959Z,14.50
2018-06-09T00:34:12.639Z,14.50
2018-06-09T00:39:13.174Z,14.50
2018-06-09T00:41:44.082Z,14.50
2018-06-09T00:44:14.829Z,14.50
2018-06-09T00:49:15.405Z,14.50
2018-06-09T00:51:46.045Z,14.40
2018-06-09T00:54:16.989Z,14.40
2018-06-09T00:56:48.525Z,14.40
2018-06-09T00:59:19.234Z,14.40
2018-06-09T01:01:49.886Z,14.40
2018-06-09T01:04:21.013Z,14.30
2018-06-09T01:06:51.750Z,14.40
2018-06-09T01:09:22.426Z,14.30
2018-06-09T01:11:53.077Z,14.30
2018-06-09T01:19:23.605Z,14.30
2018-06-09T01:21:54.273Z,14.30
2018-06-09T01:24:25.015Z,14.30
2018-06-09T01:26:56.070Z,14.30
2018-06-09T01:31:56.647Z,14.20
2018-06-09T01:34:27.353Z,14.20
2018-06-09T01:36:58.004Z,14.30
2018-06-09T01:39:28.681Z,14.20
2018-06-09T01:44:29.717Z,14.20
2018-06-09T01:47:00.638Z,14.20
2018-06-09T01:52:01.266Z,14.10
2018-06-09T01:54:32.213Z,14.10
2018-06-09T01:57:03.270Z,14.00
2018-06-09T02:02:04.443Z,14.00
2018-06-09T02:04:35.109Z,13.90
2018-06-09T02:07:05.827Z,13.90
2018-06-09T02:09:36.501Z,13.90
2018-06-09T02:12:07.608Z,13.90
2018-06-09T02:14:38.330Z,13.90
2018-06-09T02:19:39.192Z,14.00
2018-06-09T02:22:10.230Z,13.90
2018-06-09T02:24:41.290Z,13.90
2018-06-09T02:27:12.008Z,13.90
2018-06-09T02:29:42.959Z,13.90
2018-06-09T02:34:43.505Z,13.90
2018-06-09T02:37:14.132Z,13.90
2018-06-09T02:39:44.792Z,13.90
2018-06-09T02:42:15.722Z,13.90
2018-06-09T02:47:16.311Z,13.90
2018-06-09T02:49:47.006Z,13.90
2018-06-09T02:52:17.660Z,13.90
2018-06-09T02:54:52.194Z,13.90
2018-06-09T02:57:22.870Z,13.90
2018-06-09T02:59:53.886Z,13.90
2018-06-09T03:02:24.542Z,13.90
2018-06-09T03:04:55.212Z,14.00
2018-06-09T03:07:25.902Z,14.00
2018-06-09T03:09:56.589Z,14.00
2018-06-09T03:12:27.259Z,14.00
2018-06-09T03:14:57.997Z,14.00
2018-06-09T03:17:28.654Z,14.10
2018-06-09T03:19:59.320Z,14.10
2018-06-09T03:22:29.986Z,14.10
2018-06-09T03:25:00.649Z,14.20
2018-06-09T03:27:31.375Z,14.20
2018-06-09T03:30:02.081Z,14.20
2018-06-09T03:35:03.686Z,14.30
2018-06-09T03:37:34.362Z,14.30
2018-06-09T03:40:05.313Z,14.40
2018-06-09T03:42:35.954Z,14.40
2018-06-09T03:45:06.734Z,14.40
2018-06-09T03:47:37.372Z,14.50
2018-06-09T03:50:08.054Z,14.50
2018-06-09T03:52:38.742Z,14.50
2018-06-09T03:55:09.444Z,14.60
2018-06-09T03:57:40.094Z,14.60
2018-06-09T04:02:40.762Z,14.80
2018-06-09T04:05:11.409Z,14.80
2018-06-09T04:07:42.097Z,14.90
2018-06-09T04:10:12.792Z,14.90
2018-06-09T04:12:43.441Z,15.00
2018-06-09T04:15:14.625Z,15.10
2018-06-09T04:17:45.325Z,15.10
2018-06-09T04:20:16.057Z,15.20
2018-06-09T04:22:46.709Z,15.20
2018-06-09T04:25:17.634Z,15.30
2018-06-09T04:27:48.354Z,15.40
2018-06-09T04:30:19.082Z,15.40
2018-06-09T04:32:50.207Z,15.50
2018-06-09T04:35:20.890Z,15.60
2018-06-09T04:39:32.834Z,15.60
2018-06-09T04:42:03.598Z,15.70
2018-06-09T04:44:34.243Z,15.70
2018-06-09T04:49:36.598Z,15.80
2018-06-09T04:52:08.003Z,15.90
2018-06-09T04:57:09.136Z,16.10
2018-06-09T04:59:41.282Z,16.20
2018-06-09T05:02:12.073Z,16.30
2018-06-09T05:04:42.949Z,16.30
2018-06-09T05:07:13.683Z,16.40
2018-06-09T05:09:44.456Z,16.40
2018-06-09T05:12:15.166Z,16.50
2018-06-09T05:14:45.865Z,16.50
2018-06-09T05:19:46.406Z,16.60
2018-06-09T05:22:18.141Z,16.70
2018-06-09T05:24:48.822Z,16.80
2018-06-09T05:29:49.550Z,16.90
2018-06-09T05:32:20.308Z,17.00
2018-06-09T05:37:21.627Z,17.10
2018-06-09T05:39:52.412Z,17.20
2018-06-09T05:42:23.174Z,17.20
2018-06-09T05:44:54.191Z,17.30
2018-06-09T05:47:24.991Z,17.30
2018-06-09T05:49:55.650Z,17.40
2018-06-09T05:52:26.342Z,17.50
2018-06-09T05:54:57.015Z,17.50
2018-06-09T05:59:58.114Z,17.60
2018-06-09T06:07:28.959Z,17.90
2018-06-09T06:09:59.625Z,17.90
2018-06-09T06:12:30.626Z,18.00
2018-06-09T06:15:01.329Z,18.00
2018-06-09T06:17:32.055Z,18.10
2018-06-09T06:20:03.380Z,18.20
2018-06-09T06:22:34.197Z,18.40
2018-06-09T06:25:05.010Z,18.40
2018-06-09T06:27:35.905Z,18.50
2018-06-09T06:30:08.075Z,18.60
2018-06-09T06:32:38.854Z,18.70
2018-06-09T06:35:09.714Z,18.70
2018-06-09T06:37:40.712Z,18.80
2018-06-09T06:40:11.592Z,18.90
2018-06-09T06:42:42.490Z,18.90
2018-06-09T06:45:13.631Z,18.90
2018-06-09T06:47:44.875Z,19.00
2018-06-09T06:50:15.833Z,19.10
2018-06-09T06:52:46.732Z,19.20
2018-06-09T06:55:17.692Z,19.30
2018-06-09T06:57:49.429Z,19.30
2018-06-09T07:00:20.303Z,19.40
2018-06-09T07:05:21.713Z,19.40
2018-06-09T07:07:52.608Z,19.50
2018-06-09T07:10:23.358Z,19.60
2018-06-09T07:12:54.531Z,19.60
2018-06-09T07:15:25.380Z,19.70
2018-06-09T07:17:56.176Z,19.80
2018-06-09T07:20:27.113Z,19.90
2018-06-09T07:22:57.930Z,20.00
2018-06-09T07:25:28.693Z,20.10
2018-06-09T07:27:59.358Z,20.20
2018-06-09T07:30:30.043Z,20.20
2018-06-09T07:33:01.154Z,20.30
2018-06-09T07:35:31.870Z,20.40
2018-06-09T07:38:02.851Z,20.50
2018-06-09T07:40:33.902Z,20.60
2018-06-09T07:43:04.947Z,20.80
2018-06-09T07:45:35.602Z,20.90
2018-06-09T07:48:06.294Z,21.00
2018-06-09T07:50:37.080Z,21.20
2018-06-09T07:53:07.801Z,21.20
2018-06-09T07:55:38.541Z,21.30
2018-06-09T07:58:09.523Z,21.40
2018-06-09T08:00:40.298Z,21.40
2018-06-09T08:03:11.470Z,21.50
2018-06-09T08:05:42.165Z,21.60
2018-06-09T08:08:12.917Z,21.70
2018-06-09T08:10:43.618Z,21.80
2018-06-09T08:13:14.377Z,21.90
2018-06-09T08:15:45.126Z,22.00
2018-06-09T08:18:15.872Z,22.10
2018-06-09T08:20:46.630Z,22.30
2018-06-09T08:23:17.451Z,22.40
2018-06-09T08:25:48.697Z,22.50
2018-06-09T08:28:19.635Z,22.60
2018-06-09T08:30:50.455Z,22.70
2018-06-09T08:33:21.266Z,22.80
2018-06-09T08:35:52.299Z,23.00
2018-06-09T08:38:23.378Z,23.10
2018-06-09T08:40:54.083Z,23.20
2018-06-09T08:43:24.855Z,23.40
2018-06-09T08:45:55.894Z,23.50
2018-06-09T08:48:26.657Z,23.60
2018-06-09T08:50:57.422Z,23.60
2018-06-09T08:53:28.251Z,23.70
2018-06-09T08:55:58.981Z,23.80
2018-06-09T08:58:30.210Z,23.90
2018-06-09T09:01:01.003Z,24.00
2018-06-09T09:03:31.873Z,24.20
2018-06-09T09:06:02.649Z,24.30
2018-06-09T09:08:33.463Z,24.40
2018-06-09T09:11:04.297Z,24.60
2018-06-09T09:13:35.114Z,24.60
2018-06-09T09:18:36.002Z,24.70
2018-06-09T09:21:06.801Z,24.90
2018-06-09T09:23:37.947Z,25.00
2018-06-09T09:26:09.318Z,25.20
2018-06-09T09:28:40.178Z,25.20
2018-06-09T09:31:11.048Z,25.30
2018-06-09T09:33:41.890Z,25.40
2018-06-09T09:36:12.655Z,25.60
2018-06-09T09:41:13.534Z,26.00
2018-06-09T09:46:14.608Z,26.20
2018-06-09T09:48:45.426Z,26.20
2018-06-09T09:51:16.559Z,26.30
2018-06-09T09:53:47.551Z,26.20
2018-06-09T09:56:18.551Z,26.20
2018-06-09T09:58:49.525Z,26.30
2018-06-09T10:01:20.537Z,26.40
2018-06-09T10:03:51.586Z,26.50
2018-06-09T10:06:22.526Z,26.60
2018-06-09T10:08:53.581Z,26.60
2018-06-09T10:11:24.620Z,26.70
2018-06-09T10:18:55.966Z,26.70
2018-06-09T10:21:26.735Z,26.70
2018-06-09T10:23:57.593Z,26.80
2018-06-09T10:28:58.345Z,26.60
2018-06-09T10:31:29.195Z,26.60
2018-06-09T10:36:31.198Z,26.70
2018-06-09T10:39:02.145Z,26.80
2018-06-09T10:41:33.147Z,27.00
2018-06-09T10:44:03.998Z,27.10
2018-06-09T10:46:34.833Z,27.10
2018-06-09T10:49:06.230Z,27.00
2018-06-09T10:51:37.282Z,27.10
2018-06-09T10:54:08.241Z,27.10
2018-06-09T10:56:39.071Z,27.20
2018-06-09T10:59:09.869Z,27.30
2018-06-09T11:01:40.644Z,27.30
2018-06-09T11:04:13.546Z,27.40
2018-06-09T11:06:45.513Z,27.50
2018-06-09T11:09:16.813Z,27.50
2018-06-09T11:11:48.520Z,27.60
2018-06-09T11:14:20.752Z,27.70
2018-06-09T11:16:51.655Z,27.60
2018-06-09T11:21:52.889Z,27.70
2018-06-09T11:26:54.153Z,27.80
2018-06-09T11:29:25.023Z,27.80
2018-06-09T11:34:26.380Z,28.00
2018-06-09T11:36:57.141Z,28.00
2018-06-09T11:39:28.049Z,28.20
2018-06-09T11:41:58.854Z,28.40
2018-06-09T11:47:00.705Z,28.60
2018-06-09T11:49:31.617Z,28.90
2018-06-09T11:52:02.450Z,29.00
2018-06-09T11:54:33.415Z,29.10
2018-06-09T11:57:04.676Z,29.20
2018-06-09T12:04:35.446Z,29.50
2018-06-09T12:09:36.606Z,29.70
2018-06-09T12:12:07.363Z,29.80
2018-06-09T12:17:08.149Z,29.80
2018-06-09T12:19:38.906Z,29.80
2018-06-09T12:22:09.996Z,29.80
2018-06-09T12:24:40.789Z,29.90
2018-06-09T12:27:11.540Z,30.10
2018-06-09T12:29:42.308Z,30.10
2018-06-09T12:32:13.246Z,30.30
2018-06-09T12:34:44.359Z,30.40
2018-06-09T12:37:15.186Z,30.50
2018-06-09T12:39:46.081Z,30.50
2018-06-09T12:44:47.122Z,30.70
2018-06-09T12:47:18.130Z,30.80
2018-06-09T12:49:48.942Z,30.90
2018-06-09T12:52:19.780Z,31.10
2018-06-09T12:57:21.595Z,31.30
2018-06-09T12:59:52.385Z,31.50
2018-06-09T13:02:23.519Z,31.70
2018-06-09T13:04:54.558Z,31.70
2018-06-09T13:07:25.304Z,31.80
2018-06-09T13:14:57.241Z,31.30
2018-06-09T13:17:28.131Z,31.40
2018-06-09T13:19:59.084Z,31.50
2018-06-09T13:22:30.032Z,31.60
2018-06-09T13:27:30.871Z,31.80
2018-06-09T13:30:02.103Z,31.80
2018-06-09T13:32:33.115Z,31.90
2018-06-09T13:35:04.895Z,31.90
2018-06-09T13:37:35.802Z,32.10
2018-06-09T13:40:06.722Z,32.10
2018-06-09T13:42:37.490Z,32.20
2018-06-09T13:45:08.300Z,32.30
2018-06-09T13:50:15.695Z,32.40
2018-06-09T13:52:46.930Z,32.50
2018-06-09T13:55:17.722Z,32.60
2018-06-09T14:00:19.206Z,32.50
2018-06-09T14:02:49.981Z,32.50
2018-06-09T14:05:20.731Z,32.50
2018-06-09T14:07:51.524Z,32.50
2018-06-09T14:10:23.321Z,32.40
2018-06-09T14:12:54.038Z,32.30
2018-06-09T14:15:25.011Z,32.30
2018-06-09T14:17:55.825Z,32.20
2018-06-09T14:20:26.995Z,32.30
2018-06-09T14:22:58.129Z,32.40
2018-06-09T14:25:29.013Z,32.30
2018-06-09T14:27:59.701Z,32.30
2018-06-09T14:30:30.460Z,32.20
2018-06-09T14:33:01.227Z,32.20
2018-06-09T14:35:32.158Z,32.00
2018-06-09T14:38:03.034Z,31.90
2018-06-09T14:40:33.991Z,31.70
2018-06-09T14:43:05.638Z,31.60
2018-06-09T14:45:36.735Z,31.50
2018-06-09T14:48:07.788Z,31.40
2018-06-09T14:50:38.931Z,31.20
2018-06-09T14:53:09.679Z,31.10
2018-06-09T14:58:10.549Z,31.00
2018-06-09T15:00:41.725Z,30.80
2018-06-09T15:03:12.541Z,30.50
2018-06-09T15:08:13.737Z,30.10
2018-06-09T15:10:44.603Z,30.00
2018-06-09T15:13:15.491Z,29.80
2018-06-09T15:15:46.370Z,29.70
2018-06-09T15:18:17.231Z,29.70
2018-06-09T15:20:48.781Z,29.60
2018-06-09T15:23:20.512Z,29.60
2018-06-09T15:25:51.796Z,29.60
2018-06-09T15:28:22.744Z,29.50
2018-06-09T15:30:53.956Z,29.50
2018-06-09T15:33:24.973Z,29.40
2018-06-09T15:35:56.094Z,29.40
2018-06-09T15:40:58.432Z,29.20
2018-06-09T15:43:30.375Z,29.10
2018-06-09T15:46:01.320Z,29.00
2018-06-09T15:48:32.700Z,29.10
2018-06-09T15:51:03.558Z,28.90
2018-06-09T15:53:34.559Z,28.70
2018-06-09T15:56:05.484Z,28.70
2018-06-09T15:58:36.567Z,28.70
2018-06-09T16:01:08.591Z,28.70
2018-06-09T16:08:39.757Z,28.50
2018-06-09T16:11:10.733Z,28.60
2018-06-09T16:13:41.819Z,28.60
2018-06-09T16:16:12.752Z,28.60
2018-06-09T16:18:43.801Z,28.70
2018-06-09T16:21:14.864Z,28.60
2018-06-09T16:23:45.747Z,28.60
2018-06-09T16:26:16.827Z,28.40
2018-06-09T16:28:47.834Z,28.30
2018-06-09T16:31:19.207Z,28.30
2018-06-09T16:33:50.161Z,28.20
2018-06-09T16:36:21.365Z,28.10
2018-06-09T16:41:22.211Z,28.10
2018-06-09T16:43:53.341Z,28.00
2018-06-09T16:46:24.225Z,27.90
2018-06-09T16:51:25.135Z,27.70
2018-06-09T16:53:56.042Z,27.70
2018-06-09T16:56:26.807Z,27.60
2018-06-09T16:58:57.996Z,27.60
2018-06-09T17:03:59.315Z,27.60
2018-06-09T17:06:30.070Z,27.60
2018-06-09T17:09:01.661Z,27.60
2018-06-09T17:11:32.532Z,27.60
2018-06-09T17:14:03.302Z,27.50
2018-06-09T17:19:04.924Z,27.50
2018-06-09T17:21:35.858Z,27.50
2018-06-09T17:26:36.674Z,27.50
2018-06-09T17:29:07.626Z,27.50
2018-06-09T17:34:08.479Z,27.40
2018-06-09T17:36:39.565Z,27.30
2018-06-09T17:41:40.511Z,27.30
2018-06-09T17:44:11.781Z,27.30
2018-06-09T17:46:42.588Z,27.20
2018-06-09T17:49:13.615Z,27.20
2018-06-09T17:51:44.813Z,27.20
2018-06-09T17:56:46.351Z,27.30
2018-06-09T17:59:17.544Z,27.30
2018-06-09T18:01:48.683Z,27.30
2018-06-09T18:04:21.716Z,27.30
2018-06-09T18:06:52.728Z,27.20
2018-06-09T18:09:24.324Z,27.10
2018-06-09T18:11:57.166Z,27.00
2018-06-09T18:14:28.873Z,27.00
2018-06-09T18:17:00.794Z,26.90
2018-06-09T18:19:32.744Z,26.90
2018-06-09T18:22:03.582Z,26.90
2018-06-09T18:27:04.878Z,26.80
2018-06-09T18:29:35.797Z,26.80
2018-06-09T18:32:07.449Z,26.80
2018-06-09T18:34:38.241Z,26.80
2018-06-09T18:37:09.069Z,26.90
2018-06-09T18:39:39.804Z,26.80
2018-06-09T18:42:10.478Z,26.80
2018-06-09T18:44:41.443Z,26.80
2018-06-09T18:52:12.547Z,26.50
2018-06-09T18:54:43.472Z,26.30
2018-06-09T18:57:14.249Z,26.20
2018-06-09T18:59:45.050Z,26.10
2018-06-09T19:02:15.814Z,26.10
2018-06-09T19:04:46.541Z,25.90
2018-06-09T19:07:17.642Z,25.70
2018-06-09T19:09:48.772Z,25.60
2018-06-09T19:12:19.565Z,25.40
2018-06-09T19:14:50.405Z,25.30
2018-06-09T19:17:21.161Z,25.10
2018-06-09T19:19:51.941Z,25.00
2018-06-09T19:24:53.137Z,24.80
2018-06-09T19:29:54.062Z,24.50
2018-06-09T19:32:24.856Z,24.40
2018-06-09T19:34:55.651Z,24.20
2018-06-09T19:37:26.612Z,24.10
2018-06-09T19:39:57.426Z,24.00
2018-06-09T19:42:28.194Z,23.90
2018-06-09T19:44:59.029Z,23.70
2018-06-09T19:47:29.829Z,23.60
2018-06-09T19:50:00.644Z,23.50
2018-06-09T19:52:31.481Z,23.40
2018-06-09T19:55:02.204Z,23.20
2018-06-09T19:57:33.133Z,23.10
2018-06-09T20:00:04.142Z,23.00
2018-06-09T20:03:37.540Z,22.90
2018-06-09T20:08:38.901Z,22.70
2018-06-09T20:11:09.742Z,22.60
2018-06-09T20:13:40.967Z,22.40
2018-06-09T20:16:11.926Z,22.30
2018-06-09T20:18:43.755Z,22.20
2018-06-09T20:21:14.829Z,22.20
2018-06-09T20:23:45.622Z,22.10
2018-06-09T20:26:16.560Z,22.00
2018-06-09T20:28:47.484Z,21.80
2018-06-09T20:31:18.435Z,21.80
2018-06-09T20:33:49.247Z,21.70
2018-06-09T20:38:50.449Z,21.50
2018-06-09T20:41:21.216Z,21.40
2018-06-09T20:43:52.974Z,21.30
2018-06-09T20:46:24.004Z,21.30
2018-06-09T20:48:54.735Z,21.20
2018-06-09T20:51:25.537Z,21.10
2018-06-09T20:58:56.160Z,20.90
2018-06-09T21:01:26.928Z,20.80
2018-06-09T21:03:57.648Z,20.80
2018-06-09T21:06:28.442Z,20.70
2018-06-09T21:08:59.153Z,20.60
2018-06-09T21:11:30.035Z,20.60
2018-06-09T21:14:00.975Z,20.50
2018-06-09T21:16:31.702Z,20.40
2018-06-09T21:19:02.679Z,20.30
2018-06-09T21:21:33.505Z,20.30
2018-06-09T21:24:04.286Z,20.20
2018-06-09T21:26:40.202Z,20.10
2018-06-09T21:29:13.122Z,20.00
2018-06-09T21:31:45.204Z,20.00
2018-06-09T21:34:31.399Z,19.80
2018-06-09T21:39:42.224Z,19.60
2018-06-09T21:42:17.947Z,19.50
2018-06-09T21:45:52.705Z,19.40
2018-06-09T21:48:23.462Z,19.30
2018-06-09T21:50:54.476Z,19.20
2018-06-09T21:53:25.213Z,19.10
2018-06-09T21:55:56.253Z,19.10
2018-06-09T21:58:27.033Z,19.00
2018-06-09T22:00:57.993Z,18.90
2018-06-09T22:03:28.758Z,18.90
2018-06-09T22:05:59.530Z,18.90
2018-06-09T22:08:30.272Z,18.80
2018-06-09T22:11:01.010Z,18.80
2018-06-09T22:13:32.189Z,18.70
2018-06-09T22:16:02.940Z,18.80
2018-06-09T22:18:33.593Z,18.70
2018-06-09T22:21:04.265Z,18.70
2018-06-09T22:23:34.942Z,18.70
2018-06-09T22:28:36.198Z,18.60
2018-06-09T22:31:07.285Z,18.50
2018-06-09T22:33:38.277Z,18.40
2018-06-09T22:38:38.890Z,18.40
2018-06-09T22:41:09.557Z,18.30
2018-06-09T22:43:40.217Z,18.20
2018-06-09T22:46:10.927Z,18.20
2018-06-09T22:48:41.564Z,18.10
2018-06-09T22:51:12.386Z,18.10
2018-06-09T22:53:43.086Z,18.00
2018-06-09T22:56:15.181Z,18.00
2018-06-09T22:58:46.123Z,18.00
2018-06-09T23:01:16.859Z,17.90
2018-06-09T23:03:47.961Z,17.90
2018-06-09T23:06:18.393Z,17.80
2018-06-09T23:08:48.687Z,17.80
2018-06-09T23:11:19.577Z,17.80
2018-06-09T23:13:49.904Z,17.70
2018-06-09T23:16:20.382Z,17.70
2018-06-09T23:18:50.701Z,17.70
2018-06-09T23:21:21.181Z,17.60
2018-06-09T23:23:51.558Z,17.60
2018-06-09T23:26:22.523Z,17.50
2018-06-09T23:31:23.101Z,17.40
2018-06-09T23:33:53.822Z,17.40
2018-06-09T23:36:24.510Z,17.40
2018-06-09T23:38:55.153Z,17.30
2018-06-09T23:41:26.358Z,17.30
2018-06-09T23:43:57.006Z,17.20
2018-06-09T23:46:27.774Z,17.20
2018-06-09T23:48:58.853Z,17.10
2018-06-09T23:53:59.466Z,17.20
2018-06-09T23:56:30.170Z,17.20
2018-06-09T23:59:00.893Z,17.30
